Time;durP1;ratioP1;P1;durP2;ratioP2;P2;SDS_P1;SDS_P2;PMS_P1;PMS_P2;Temp;Humidity;BMP_temperature;BMP_pressure;BME280_temperature;BME280_humidity;BME280_pressure;Samples;Min_cycle;Max_cycle;Signal;HPM_P1;HPM_P2
2024/01/31 06:43:27;;;;;;;1.65;0.77;;;;;;;;;;10519917;28;20443;-87
2024/01/31 06:48:28;;;;;;;1.40;0.50;;;;;;;;;;10540283;28;20036;-87
2024/01/31 06:53:29;;;;;;;;;;;;;;;;;;10504866;22;20049;-84
2024/01/31 06:58:36;;;;;;;1.40;0.65;;;;;;;;;;10420364;28;19913;-84
2024/01/31 07:03:38;;;;;;;1.17;0.50;;;;;;;;;;10439423;28;20388;-83
2024/01/31 07:08:41;;;;;;;3.63;1.05;;;;;;;;;;10421271;28;20088;-83
2024/01/31 07:13:43;;;;;;;5.30;1.30;;;;;;;;;;10421349;28;20477;-83
2024/01/31 07:18:55;;;;;;;;;;;;;;;;;;10423342;28;20028;-84
2024/01/31 07:23:56;;;;;;;3.03;1.50;;;;;;;;;;10418611;28;19905;-84
2024/01/31 07:29:03;;;;;;;2.78;1.48;;;;;;;;;;10417014;28;20120;-84
2024/01/31 07:34:10;;;;;;;2.97;1.63;;;;;;;;;;10416332;28;20045;-84
2024/01/31 07:44:35;;;;;;;4.18;1.73;;;;;;;;;;10421591;28;20038;-85
2024/01/31 07:49:36;;;;;;;3.45;1.67;;;;;;;;;;10436105;28;20056;-86
2024/01/31 07:54:42;;;;;;;;;;;;;;;;;;10409896;28;20052;-84
2024/01/31 07:59:43;;;;;;;2.20;1.20;;;;;;;;;;10396643;28;19905;-84
2024/01/31 08:04:45;;;;;;;1.80;0.88;;;;;;;;;;10390762;28;20022;-83
2024/01/31 08:09:46;;;;;;;3.80;1.80;;;;;;;;;;10393956;28;20064;-84
2024/01/31 08:14:47;;;;;;;;;;;;;;;;;;10388410;28;20096;-82
2024/01/31 08:19:49;;;;;;;4.88;3.25;;;;;;;;;;10391186;28;20253;-84
2024/01/31 08:24:50;;;;;;;4.60;3.00;;;;;;;;;;10389906;28;20033;-82
2024/01/31 08:53:01;;;;;;;3.15;2.25;;;;;;;;;;10391809;28;20065;-87
2024/01/31 09:26:24;;;;;;;4.22;3.05;;;;;;;;;;10419702;28;20030;-86
2024/01/31 09:48:35;;;;;;;5.15;3.38;;;;;;;;;;10404620;28;20038;-86
2024/01/31 09:53:36;;;;;;;4.70;3.00;;;;;;;;;;10413861;28;20191;-85
2024/01/31 09:58:44;;;;;;;5.07;2.50;;;;;;;;;;10413888;28;20045;-86
2024/01/31 10:04:08;;;;;;;5.15;3.05;;;;;;;;;;10387186;28;20069;-86
2024/01/31 10:15:11;;;;;;;6.45;3.45;;;;;;;;;;10382868;28;20060;-86
2024/01/31 10:43:41;;;;;;;6.63;3.60;;;;;;;;;;10381297;28;20041;-86
2024/01/31 10:48:43;;;;;;;5.25;3.70;;;;;;;;;;10383787;28;20038;-85
2024/01/31 10:53:44;;;;;;;;;;;;;;;;;;10362911;28;20041;-86
2024/01/31 10:59:32;;;;;;;6.45;3.63;;;;;;;;;;10300991;28;20652;-87
2024/01/31 11:27:52;;;;;;;4.50;2.50;;;;;;;;;;11555775;23;20045;-88
2024/01/31 11:32:59;;;;;;;3.60;2.33;;;;;;;;;;10441327;28;20038;-85
2024/01/31 11:38:00;;;;;;;5.32;2.50;;;;;;;;;;10460472;28;20513;-85
2024/01/31 11:48:37;;;;;;;3.85;2.70;;;;;;;;;;2984293;26;20050;-84
2024/01/31 11:53:42;;;;;;;7.43;5.03;;;;;;;;;;10409766;28;20049;-84
2024/01/31 11:58:59;;;;;;;7.85;4.82;;;;;;;;;;10409328;28;20101;-83
2024/01/31 12:04:04;;;;;;;4.97;2.78;;;;;;;;;;10408342;28;20402;-85
2024/01/31 12:09:17;;;;;;;4.60;2.80;;;;;;;;;;10391028;28;20474;-84
2024/01/31 12:14:20;;;;;;;5.22;3.35;;;;;;;;;;10406848;28;20034;-83
2024/01/31 12:19:29;;;;;;;6.35;3.80;;;;;;;;;;10390685;28;20061;-83
2024/01/31 12:24:35;;;;;;;5.30;3.13;;;;;;;;;;10392109;28;20042;-83
2024/01/31 12:29:36;;;;;;;7.57;5.32;;;;;;;;;;10406882;28;20048;-83
2024/01/31 12:34:37;;;;;;;4.78;2.92;;;;;;;;;;10407405;28;20081;-83
2024/01/31 12:39:38;;;;;;;9.00;7.20;;;;;;;;;;10405507;28;20041;-83
2024/01/31 12:44:39;;;;;;;;;;;;;;;;;;10405915;28;20049;-83
2024/01/31 12:49:41;;;;;;;8.00;5.10;;;;;;;;;;10389306;28;20340;-83
2024/01/31 12:54:42;;;;;;;11.73;8.65;;;;;;;;;;10407858;28;20030;-81
2024/01/31 12:59:58;;;;;;;;;;;;;;;;;;10399874;28;20030;-82
2024/01/31 13:05:28;;;;;;;6.00;4.25;;;;;;;;;;10394553;28;20055;-82
2024/01/31 13:10:49;;;;;;;7.00;4.30;;;;;;;;;;10392090;28;20044;-81
2024/01/31 13:15:52;;;;;;;7.30;4.90;;;;;;;;;;10389538;28;20091;-82
2024/01/31 13:20:54;;;;;;;6.15;4.72;;;;;;;;;;10387455;28;20038;-82
2024/01/31 13:26:05;;;;;;;4.82;3.67;;;;;;;;;;10407829;28;20034;-86
2024/01/31 13:31:07;;;;;;;;;;;;;;;;;;10399424;28;20128;-83
2024/01/31 13:36:12;;;;;;;5.60;3.95;;;;;;;;;;10392823;28;19912;-84
2024/01/31 13:41:13;;;;;;;5.30;4.22;;;;;;;;;;10389685;28;20485;-84
2024/01/31 13:46:14;;;;;;;;;;;;;;;;;;10388729;28;20068;-83
2024/01/31 13:51:17;;;;;;;6.10;4.57;;;;;;;;;;10387934;28;20296;-83
2024/01/31 13:56:18;;;;;;;6.03;3.95;;;;;;;;;;10404963;28;20493;-84
2024/01/31 14:01:19;;;;;;;3.90;2.63;;;;;;;;;;10388310;28;20048;-81
2024/01/31 14:06:20;;;;;;;;;;;;;;;;;;10402122;28;20102;-81
2024/01/31 14:11:21;;;;;;;9.57;6.75;;;;;;;;;;10384512;28;19909;-83
2024/01/31 14:16:22;;;;;;;;;;;;;;;;;;10402270;28;20037;-83
2024/01/31 14:21:23;;;;;;;5.30;4.32;;;;;;;;;;10386573;28;19905;-83
2024/01/31 14:26:24;;;;;;;;;;;;;;;;;;10401801;28;20117;-84
2024/01/31 14:31:25;;;;;;;4.20;2.95;;;;;;;;;;10386691;28;19914;-83
2024/01/31 14:36:26;;;;;;;8.52;6.45;;;;;;;;;;10402420;28;20533;-83
2024/01/31 14:41:27;;;;;;;;;;;;;;;;;;10384341;28;20060;-83
2024/01/31 14:46:28;;;;;;;4.00;3.13;;;;;;;;;;10382806;28;19915;-84
2024/01/31 14:51:29;;;;;;;5.32;3.80;;;;;;;;;;10385509;28;20034;-83
2024/01/31 14:56:30;;;;;;;10.15;6.38;;;;;;;;;;10386219;28;20058;-84
2024/01/31 15:01:31;;;;;;;10.25;9.00;;;;;;;;;;10402992;28;20065;-84
2024/01/31 15:06:36;;;;;;;5.80;4.80;;;;;;;;;;10393418;28;20057;-84
2024/01/31 15:11:37;;;;;;;5.70;4.50;;;;;;;;;;10407174;28;20038;-84
2024/01/31 15:16:38;;;;;;;6.35;5.13;;;;;;;;;;10391814;28;20116;-84
2024/01/31 15:21:39;;;;;;;5.88;4.82;;;;;;;;;;10408342;28;20073;-84
2024/01/31 15:26:40;;;;;;;5.07;3.10;;;;;;;;;;10408819;28;20128;-82
2024/01/31 15:31:41;;;;;;;5.22;2.83;;;;;;;;;;10408204;28;20472;-83
2024/01/31 15:36:45;;;;;;;;;;;;;;;;;;10407397;28;20057;-83
2024/01/31 15:41:46;;;;;;;5.32;3.70;;;;;;;;;;10391739;28;20305;-83
2024/01/31 15:46:48;;;;;;;4.75;2.90;;;;;;;;;;10406504;28;20038;-81
2024/01/31 15:51:49;;;;;;;5.60;3.05;;;;;;;;;;10391483;28;20106;-82
2024/01/31 15:56:52;;;;;;;5.43;4.38;;;;;;;;;;10391668;28;20057;-82
2024/01/31 16:01:53;;;;;;;3.53;2.35;;;;;;;;;;10393065;28;20030;-82
2024/01/31 16:06:58;;;;;;;4.18;3.13;;;;;;;;;;10406000;28;20038;-82
2024/01/31 16:11:59;;;;;;;5.78;4.40;;;;;;;;;;10405388;28;20045;-83
2024/01/31 16:17:00;;;;;;;;;;;;;;;;;;10403592;28;20041;-82
2024/01/31 16:22:02;;;;;;;5.80;3.47;;;;;;;;;;10387473;28;20266;-84
2024/01/31 16:27:04;;;;;;;4.88;3.40;;;;;;;;;;10408950;28;20092;-82
2024/01/31 16:32:05;;;;;;;3.10;2.35;;;;;;;;;;10405646;28;20114;-82
2024/01/31 16:37:06;;;;;;;3.35;2.10;;;;;;;;;;10401237;28;20038;-78
2024/01/31 16:42:07;;;;;;;4.45;2.05;;;;;;;;;;10397246;28;20042;-78
2024/01/31 16:47:08;;;;;;;3.63;1.80;;;;;;;;;;10399006;28;20094;-82
2024/01/31 16:52:09;;;;;;;;;;;;;;;;;;10410080;28;20037;-81
2024/01/31 16:57:10;;;;;;;3.53;2.08;;;;;;;;;;10381219;28;19906;-79
2024/01/31 17:02:11;;;;;;;;;;;;;;;;;;10404164;28;20038;-82
2024/01/31 17:07:12;;;;;;;4.38;3.30;;;;;;;;;;10388910;28;19905;-83
2024/01/31 17:12:13;;;;;;;5.50;3.92;;;;;;;;;;10388399;28;20053;-82
2024/01/31 17:17:14;;;;;;;;;;;;;;;;;;10407666;28;20067;-83
2024/01/31 17:22:15;;;;;;;5.95;2.72;;;;;;;;;;10389696;28;20313;-81
2024/01/31 17:27:16;;;;;;;;;;;;;;;;;;10389852;28;20113;-81
2024/01/31 17:32:17;;;;;;;4.03;2.78;;;;;;;;;;10386116;28;19920;-79
2024/01/31 17:37:18;;;;;;;3.30;2.35;;;;;;;;;;10381625;28;20041;-79
2024/01/31 17:42:38;;;;;;;4.90;3.35;;;;;;;;;;10421877;22;20053;-84
2024/01/31 17:48:13;;;;;;;3.22;2.33;;;;;;;;;;10421162;28;20095;-84
2024/01/31 17:58:54;;;;;;;4.05;3.28;;;;;;;;;;10428694;28;20448;-84
2024/01/31 18:09:27;;;;;;;4.43;2.40;;;;;;;;;;10430492;28;19913;-84
2024/01/31 18:14:46;;;;;;;3.63;2.25;;;;;;;;;;10437857;28;20033;-84
2024/01/31 18:25:59;;;;;;;3.85;2.15;;;;;;;;;;10382259;28;20029;-84
2024/01/31 18:31:48;;;;;;;3.40;1.98;;;;;;;;;;10425784;28;20041;-84
2024/01/31 18:37:09;;;;;;;3.17;2.28;;;;;;;;;;10423101;28;20034;-84
2024/01/31 18:48:10;;;;;;;3.60;2.30;;;;;;;;;;10416842;28;20029;-85
2024/01/31 19:05:09;;;;;;;4.32;2.55;;;;;;;;;;10466558;28;20024;-84
2024/01/31 19:10:50;;;;;;;4.88;2.95;;;;;;;;;;10442874;28;20034;-84
2024/01/31 19:15:52;;;;;;;5.47;3.10;;;;;;;;;;10441484;28;20033;-84
2024/01/31 19:21:05;;;;;;;3.05;2.30;;;;;;;;;;10441689;28;20130;-84
2024/01/31 19:32:09;;;;;;;4.00;1.85;;;;;;;;;;10419651;28;20034;-85
2024/01/31 19:37:30;;;;;;;4.05;2.13;;;;;;;;;;10423142;28;20034;-85
2024/01/31 19:43:09;;;;;;;5.85;2.50;;;;;;;;;;10419203;28;20030;-85
2024/01/31 19:48:27;;;;;;;6.00;2.95;;;;;;;;;;10421798;28;20120;-85
2024/01/31 19:59:09;;;;;;;2.78;1.90;;;;;;;;;;10425363;28;20013;-84
